Etusivu
METAR-TAF:

METAR-TAF

Lentoasemat :

Remada, Tunisia

Leveyspiiri: 32-19N, Pituuspiiri: 010-24E, korkeus merenpinnasta: 300 m

Tämänhetkinen sää

Tämä raportti tehtiin 1 tunti ja 11 minuuttia sitten, kello 13.00 UTC
Tuuli 14 kn lännestä/lounaasta puuskistuen 24 kn:hen, vaihdellen etelän/lounaan ja lännen/luoteen välillä
Lämpötila 20°C
Kosteus 28%
Ilmanpaine 1009 hPa
Näkyvyys: 6000 m

METAR: DTTD 281300Z 24014G24KT 200V300 6000 NSC 20/01 Q1009

Aika: 15:11 (14:11 UTC)


TAF: puuttuu

Säähavainnot ja -ennusteet yli 4000 lentoasemalta (METAR- ja TAF-raportit).

Käytössä olevat sääasemat on merkitty karttaan keltaisilla ja punaisilla pisteillä.

Aseta hiiri pisteen päälle nähdäksesi sääaseman nimen.

Klikkaa sitten nähdäksesi säähavainnot ja -ennusteet.

Kartan vaihtaminen: klikkaa mustalla rastilla varustettuja vihreitä pisteitä, niin voit zoomata sisään; viivalla varustettua vihreää pistettä, niin voit zoomata ulos tai vihreitä nuolia, niin pääset viereisille kartoille.


METAR-TAF: